Time;durP1;ratioP1;P1;durP2;ratioP2;P2;SDS_P1;SDS_P2;PMS_P1;PMS_P2;Temp;Humidity;BMP_temperature;BMP_pressure;BME280_temperature;BME280_humidity;BME280_pressure;Samples;Min_cycle;Max_cycle;Signal;HPM_P1;HPM_P2
2022/11/05 00:10:50;;;;;;;9.40;7.43;;;;;;;8.42;61.51;101015.63;5069521;27;97553;-81
2022/11/05 00:19:05;;;;;;;7.97;7.00;;;;;;;8.41;61.43;101038.03;5058498;27;100466;-81
2022/11/05 00:26:57;;;;;;;8.43;6.13;;;;;;;8.42;61.60;101028.56;5069557;27;96819;-80
2022/11/05 00:29:22;;;;;;;8.87;6.33;;;;;;;8.42;61.59;101054.00;5072639;27;97236;-81
2022/11/05 00:31:48;;;;;;;9.50;6.27;;;;;;;8.40;61.63;101039.25;5067805;27;97319;-81
2022/11/05 00:34:13;;;;;;;8.07;6.80;;;;;;;8.41;61.38;101051.75;5069896;27;97995;-80
2022/11/05 00:36:39;;;;;;;7.83;6.10;;;;;;;8.39;61.65;101051.44;5052748;27;97169;-80
2022/11/05 00:39:04;;;;;;;6.57;5.90;;;;;;;8.38;61.66;101036.97;5065728;27;98702;-81
2022/11/05 00:41:30;;;;;;;8.67;6.27;;;;;;;8.36;61.40;101053.13;5070228;27;96681;-81
2022/11/05 00:46:39;;;;;;;8.40;5.37;;;;;;;8.34;61.66;101050.09;5062212;27;96908;-81
2022/11/05 00:52:54;;;;;;;9.50;6.07;;;;;;;8.34;61.57;101047.38;5063580;27;100768;-81
2022/11/05 00:54:33;;;;;;;6.60;5.43;;;;;;;8.31;61.69;101051.03;5058809;27;97397;-81
2022/11/05 00:56:59;;;;;;;6.00;5.10;;;;;;;8.29;61.59;101064.44;5044217;27;97244;-81
2022/11/05 00:59:24;;;;;;;6.33;5.67;;;;;;;8.27;61.46;101059.44;5058689;27;97023;-81
2022/11/05 01:01:49;;;;;;;5.07;4.57;;;;;;;8.25;61.43;101053.66;5048442;27;97278;-81
2022/11/05 01:04:15;;;;;;;7.43;5.90;;;;;;;8.22;61.47;101059.28;5045645;27;97116;-80
2022/11/05 01:06:40;;;;;;;7.70;5.97;;;;;;;8.20;61.45;101067.19;5047140;27;97657;-80
2022/11/05 01:09:05;;;;;;;6.13;5.03;;;;;;;8.19;61.64;101062.97;5046865;27;97520;-81
2022/11/05 01:11:35;;;;;;;5.53;4.70;;;;;;;8.18;61.38;101075.13;5051255;27;100078;-81
2022/11/05 01:14:04;;;;;;;10.93;5.60;;;;;;;8.15;61.67;101078.78;5060015;27;97206;-81
2022/11/05 01:16:31;;;;;;;6.03;5.43;;;;;;;8.13;61.54;101082.00;5068439;27;96821;-81
2022/11/05 01:18:56;;;;;;;6.87;4.10;;;;;;;8.07;61.44;101080.38;5046292;27;97682;-81
2022/11/05 01:21:21;;;;;;;9.07;6.20;;;;;;;8.03;61.48;101082.53;5065333;27;97182;-81
2022/11/05 01:23:47;;;;;;;7.87;5.50;;;;;;;8.04;61.54;101081.28;5042642;27;97191;-81
2022/11/05 01:26:12;;;;;;;9.00;5.47;;;;;;;8.00;61.68;101086.19;5047305;27;97364;-80
2022/11/05 01:28:38;;;;;;;9.13;6.13;;;;;;;7.97;61.65;101087.84;5033264;27;100585;-81
2022/11/05 01:31:03;;;;;;;7.70;5.30;;;;;;;7.97;61.38;101093.34;5045732;27;100347;-81
2022/11/05 01:33:28;;;;;;;5.37;4.80;;;;;;;7.95;61.47;101084.09;5042169;27;96851;-80
2022/11/05 01:35:54;;;;;;;9.20;5.10;;;;;;;7.90;61.66;101090.19;5043795;27;97366;-80
2022/11/05 01:38:19;;;;;;;8.47;5.17;;;;;;;7.87;61.65;101099.31;5049910;27;99200;-80
2022/11/05 01:40:45;;;;;;;10.63;5.87;;;;;;;7.84;61.73;101101.00;5050161;27;98174;-80
2022/11/05 01:43:16;;;;;;;6.77;4.60;;;;;;;7.84;61.71;101092.78;5059664;27;97259;-80
2022/11/05 01:45:45;;;;;;;5.20;4.10;;;;;;;7.80;61.51;101094.94;5041023;27;97114;-80
2022/11/05 01:48:24;;;;;;;5.60;4.53;;;;;;;7.75;61.71;101112.00;5080050;27;99785;-80
2022/11/05 01:50:58;;;;;;;6.37;4.80;;;;;;;7.75;61.75;101098.31;5046462;27;97421;-80
2022/11/05 01:53:35;;;;;;;5.60;4.33;;;;;;;7.78;61.96;101099.34;5049228;27;97091;-80
2022/11/05 01:56:00;;;;;;;7.23;4.60;;;;;;;7.77;61.80;101097.84;5065652;27;96610;-80
2022/11/05 01:58:32;;;;;;;8.33;5.33;;;;;;;7.74;61.53;101113.22;5041934;27;98365;-81
2022/11/05 02:00:58;;;;;;;7.20;5.00;;;;;;;7.71;61.57;101094.94;5048073;27;98301;-80
2022/11/05 02:03:24;;;;;;;6.10;4.90;;;;;;;7.71;61.60;101108.66;5061058;27;97025;-80
2022/11/05 02:05:54;;;;;;;8.30;5.20;;;;;;;7.70;61.78;101087.97;5046412;27;96889;-80
2022/11/05 02:08:41;;;;;;;5.90;4.47;;;;;;;7.74;61.89;101098.75;5052409;27;97736;-80
2022/11/05 02:11:07;;;;;;;7.33;4.00;;;;;;;7.71;61.82;101096.97;5066272;27;101873;-81
2022/11/05 02:13:35;;;;;;;8.47;5.07;;;;;;;7.71;61.64;101099.69;5063866;27;96964;-80
2022/11/05 02:16:35;;;;;;;8.07;4.40;;;;;;;7.69;62.03;101094.66;5045329;27;96884;-80
2022/11/05 02:19:10;;;;;;;8.30;4.23;;;;;;;7.66;61.89;101097.56;5051927;27;102096;-80
2022/11/05 02:22:13;;;;;;;4.37;3.70;;;;;;;7.62;61.68;101096.97;5044478;27;97057;-80
2022/11/05 02:24:53;;;;;;;8.47;4.60;;;;;;;7.58;61.69;101089.69;5065797;27;97107;-80
2022/11/05 02:27:47;;;;;;;9.43;4.10;;;;;;;7.55;62.08;101093.34;5041397;27;96935;-80
2022/11/05 02:30:34;;;;;;;7.63;3.90;;;;;;;7.54;62.14;101094.56;5037199;27;102116;-81
2022/11/05 02:33:13;;;;;;;8.03;3.70;;;;;;;7.54;61.79;101099.28;5062242;27;96817;-80
2022/11/05 02:35:54;;;;;;;6.47;3.87;;;;;;;7.52;61.76;101097.00;5045235;27;96924;-80
2022/11/05 02:38:49;;;;;;;5.73;3.87;;;;;;;7.50;62.04;101112.38;5023262;27;97084;-80
2022/11/05 02:41:46;;;;;;;5.20;3.90;;;;;;;7.47;62.00;101092.13;5048003;27;102727;-80
2022/11/05 02:44:27;;;;;;;5.03;4.33;;;;;;;7.45;61.99;101091.06;5048870;27;102569;-80
2022/11/05 02:47:04;;;;;;;6.63;4.40;;;;;;;7.44;61.64;101095.03;5044619;27;97796;-80
2022/11/05 02:49:42;;;;;;;6.10;4.90;;;;;;;7.43;61.94;101091.53;5043069;27;96915;-80
2022/11/05 02:52:18;;;;;;;5.80;4.03;;;;;;;7.37;61.82;101089.88;5063317;27;97884;-81
2022/11/05 02:54:58;;;;;;;11.67;4.37;;;;;;;7.38;61.70;101102.34;5061924;27;97840;-80
2022/11/05 02:57:23;;;;;;;7.60;3.90;;;;;;;7.36;61.60;101110.28;5042802;27;97165;-80
2022/11/05 02:59:59;;;;;;;6.60;4.77;;;;;;;7.36;61.69;101099.31;5048917;27;97332;-80
2022/11/05 03:02:24;;;;;;;10.23;4.90;;;;;;;7.32;61.69;101121.34;5039521;27;97398;-80
2022/11/05 03:04:50;;;;;;;5.13;4.37;;;;;;;7.32;61.62;101109.66;5061641;27;96851;-80
2022/11/05 03:07:42;;;;;;;4.07;3.67;;;;;;;7.30;61.88;101115.59;5047850;27;97457;-81
2022/11/05 03:10:26;;;;;;;5.00;3.80;;;;;;;7.30;61.94;101107.38;5061257;27;96882;-80
2022/11/05 03:13:14;;;;;;;4.33;3.90;;;;;;;7.27;61.83;101118.50;5041571;27;102681;-81
2022/11/05 03:15:54;;;;;;;6.50;3.87;;;;;;;7.25;61.55;101116.19;5061585;27;100132;-80
2022/11/05 03:18:29;;;;;;;8.23;4.30;;;;;;;7.20;61.73;101103.16;5028138;27;96766;-80
2022/11/05 03:21:01;;;;;;;6.27;4.40;;;;;;;7.18;61.71;101113.03;5063388;27;97497;-80
2022/11/05 03:23:31;;;;;;;6.77;4.40;;;;;;;7.14;61.81;101142.50;5035889;27;97699;-80
2022/11/05 03:26:05;;;;;;;4.63;4.00;;;;;;;7.13;61.55;101119.09;5045681;27;99862;-80
2022/11/05 03:28:34;;;;;;;8.60;3.73;;;;;;;7.10;61.63;101128.22;5015292;27;96610;-81
2022/11/05 03:31:02;;;;;;;4.63;3.90;;;;;;;7.09;61.87;101129.44;5037730;27;97022;-80
2022/11/05 03:33:32;;;;;;;4.70;4.03;;;;;;;7.04;61.79;101122.59;5048028;27;102373;-80
2022/11/05 03:36:04;;;;;;;4.30;3.73;;;;;;;7.08;61.74;101128.66;5069104;27;98710;-80
2022/11/05 03:38:37;;;;;;;5.13;3.60;;;;;;;7.08;61.54;101139.63;5048028;27;97469;-80
2022/11/05 03:41:09;;;;;;;3.40;3.10;;;;;;;7.07;61.82;101149.06;5066291;27;96913;-80
2022/11/05 03:43:39;;;;;;;3.07;2.83;;;;;;;7.06;61.53;101147.50;5044890;27;97235;-80
2022/11/05 03:46:26;;;;;;;5.03;3.20;;;;;;;7.06;61.90;101139.31;5060381;27;97515;-80
2022/11/05 03:48:54;;;;;;;4.63;3.70;;;;;;;7.04;61.47;101139.00;5032348;27;96762;-80
2022/11/05 03:51:47;;;;;;;3.90;3.60;;;;;;;7.01;61.74;101156.31;5077296;27;97088;-80
2022/11/05 03:54:13;;;;;;;4.33;3.23;;;;;;;6.99;61.69;101144.34;5046553;27;98912;-80
2022/11/05 03:56:41;;;;;;;5.63;3.10;;;;;;;6.97;61.61;101144.03;5048702;27;98567;-80
2022/11/05 03:59:09;;;;;;;4.67;3.20;;;;;;;6.94;61.76;101140.22;5058252;27;97318;-80
2022/11/05 04:01:37;;;;;;;5.40;2.90;;;;;;;6.94;61.76;101156.66;5045642;27;97393;-79
2022/11/05 04:04:05;;;;;;;3.87;3.23;;;;;;;6.87;61.60;101151.47;5047085;27;97443;-80
2022/11/05 04:14:42;;;;;;;4.57;3.17;;;;;;;6.74;61.42;101168.00;5055473;27;101437;-80
2022/11/05 04:17:08;;;;;;;5.00;3.77;;;;;;;6.72;61.79;101173.16;5048384;27;98695;-80
2022/11/05 04:25:06;;;;;;;4.10;3.30;;;;;;;6.75;61.85;101177.72;5046431;27;98365;-80
2022/11/05 04:27:31;;;;;;;4.93;3.10;;;;;;;6.75;61.84;101180.44;5040819;27;96869;-80
2022/11/05 04:32:41;;;;;;;4.80;2.80;;;;;;;6.70;61.71;101194.75;5040555;27;97385;-80
2022/11/05 04:35:06;;;;;;;5.40;3.10;;;;;;;6.70;61.71;101180.31;5027809;27;97700;-80
2022/11/05 04:37:32;;;;;;;4.10;3.50;;;;;;;6.67;61.50;101178.47;5063793;27;96710;-80
2022/11/05 04:39:57;;;;;;;3.70;3.33;;;;;;;6.65;61.91;101186.34;5045898;27;96993;-80
2022/11/05 04:42:23;;;;;;;3.17;2.87;;;;;;;6.65;61.75;101178.16;5055990;27;96941;-79
2022/11/05 04:44:49;;;;;;;5.90;3.30;;;;;;;6.65;61.47;101187.13;5039221;27;97794;-80
2022/11/05 04:47:14;;;;;;;4.50;2.93;;;;;;;6.62;61.85;101176.31;5048543;27;99487;-79
2022/11/05 04:49:40;;;;;;;3.13;2.83;;;;;;;6.63;61.74;101186.03;5074693;27;97101;-79
2022/11/05 04:52:05;;;;;;;3.20;2.90;;;;;;;6.58;61.78;101184.66;5038490;27;96864;-80
2022/11/05 04:54:30;;;;;;;3.10;2.67;;;;;;;6.57;62.04;101198.78;5061306;27;97923;-79
2022/11/05 04:56:56;;;;;;;3.23;2.93;;;;;;;6.55;61.83;101195.75;5033831;27;97373;-80
2022/11/05 04:59:21;;;;;;;6.70;3.00;;;;;;;6.56;61.78;101203.50;5044491;27;97197;-79
2022/11/05 05:01:51;;;;;;;3.87;3.10;;;;;;;6.52;61.83;101191.94;5049014;27;98673;-80
2022/11/05 05:04:17;;;;;;;5.10;3.13;;;;;;;6.56;61.99;101191.78;5045894;27;97268;-80
2022/11/05 05:06:42;;;;;;;3.80;3.33;;;;;;;6.53;61.59;101196.19;5043658;27;97485;-80
2022/11/05 05:09:08;;;;;;;3.10;2.80;;;;;;;6.52;61.77;101191.94;5041378;27;97440;-80
2022/11/05 05:11:33;;;;;;;4.53;3.37;;;;;;;6.53;61.81;101195.44;5047274;27;96666;-80
2022/11/05 05:13:59;;;;;;;5.97;2.43;;;;;;;6.47;61.68;101199.97;5048599;27;98774;-79
2022/11/05 05:16:26;;;;;;;4.70;3.07;;;;;;;6.49;61.70;101208.47;5044397;27;98091;-79
2022/11/05 05:18:52;;;;;;;5.50;3.40;;;;;;;6.49;61.94;101203.00;5045084;27;97467;-80
2022/11/05 05:24:04;;;;;;;3.53;3.23;;;;;;;6.43;61.71;101211.03;5059779;27;97002;-81
2022/11/05 05:26:30;;;;;;;10.93;2.80;;;;;;;6.41;61.62;101216.19;5035673;27;99298;-80
2022/11/05 05:28:55;;;;;;;3.70;3.33;;;;;;;6.40;62.20;101214.66;5052234;27;97595;-79
2022/11/05 05:31:21;;;;;;;4.00;2.87;;;;;;;6.41;61.79;101216.19;5038981;27;97244;-80
2022/11/05 05:33:47;;;;;;;6.93;3.43;;;;;;;6.37;62.03;101226.50;5059637;27;97356;-80
2022/11/05 05:36:12;;;;;;;3.30;2.90;;;;;;;6.37;61.79;101223.00;5053643;27;97343;-80
2022/11/05 05:38:38;;;;;;;5.23;2.90;;;;;;;6.37;61.93;101212.84;5048173;27;97291;-80
2022/11/05 05:41:03;;;;;;;5.97;3.80;;;;;;;6.36;61.82;101216.78;5040140;27;97127;-80
2022/11/05 05:43:30;;;;;;;4.23;3.43;;;;;;;6.36;61.82;101232.41;5043445;27;97045;-80
2022/11/05 05:45:59;;;;;;;4.30;2.80;;;;;;;6.33;61.82;101222.38;5060726;27;96719;-80
2022/11/05 05:48:25;;;;;;;4.30;3.40;;;;;;;6.32;61.69;101224.34;5062145;27;96737;-80
2022/11/05 05:50:50;;;;;;;3.97;3.27;;;;;;;6.31;61.76;101224.81;5047269;27;97223;-79
2022/11/05 05:53:16;;;;;;;4.87;3.80;;;;;;;6.29;61.73;101225.22;5063661;27;97469;-79
2022/11/05 05:55:41;;;;;;;3.63;3.33;;;;;;;6.26;61.80;101236.31;5039978;27;100188;-80
2022/11/05 05:58:07;;;;;;;3.63;3.30;;;;;;;6.22;61.88;101227.50;5040242;27;96984;-79
2022/11/05 06:00:32;;;;;;;5.00;3.37;;;;;;;6.23;61.74;101229.75;5044624;27;97340;-80
2022/11/05 06:02:58;;;;;;;4.13;3.50;;;;;;;6.23;61.84;101242.66;5045827;27;101803;-79
2022/11/05 06:05:23;;;;;;;5.57;4.10;;;;;;;6.21;61.94;101236.88;5042876;27;99183;-79
2022/11/05 06:07:56;;;;;;;6.47;3.50;;;;;;;6.21;61.89;101228.69;5038344;27;97014;-80
2022/11/05 06:10:22;;;;;;;6.00;3.23;;;;;;;6.18;61.72;101243.25;5016419;28;97330;-80
2022/11/05 06:12:47;;;;;;;3.63;3.13;;;;;;;6.18;61.84;101243.25;5032013;27;97412;-80
2022/11/05 06:15:13;;;;;;;3.50;3.20;;;;;;;6.16;61.71;101248.41;5041049;27;97427;-79
2022/11/05 06:17:38;;;;;;;9.40;3.50;;;;;;;6.11;61.60;101236.09;5060076;27;96749;-79
2022/11/05 06:20:04;;;;;;;4.03;3.63;;;;;;;6.12;61.60;101250.50;5057373;27;97613;-80
2022/11/05 06:22:30;;;;;;;3.90;2.90;;;;;;;6.12;61.70;101256.72;5062953;27;97876;-79
2022/11/05 06:24:55;;;;;;;5.90;3.80;;;;;;;6.10;61.77;101255.63;5029195;27;98223;-79
2022/11/05 06:27:20;;;;;;;5.03;3.97;;;;;;;6.04;61.61;101253.50;5037914;27;97506;-80
2022/11/05 06:29:46;;;;;;;7.27;3.93;;;;;;;5.94;61.64;101257.38;5044030;27;97112;-80
2022/11/05 06:32:11;;;;;;;4.33;3.93;;;;;;;5.95;61.64;101252.66;5063961;27;97433;-80
2022/11/05 06:34:37;;;;;;;6.00;3.40;;;;;;;5.91;61.86;101252.81;5038783;27;99186;-80
2022/11/05 06:37:02;;;;;;;4.27;3.53;;;;;;;5.91;61.87;101252.81;5039771;27;97156;-80
2022/11/05 06:39:27;;;;;;;4.33;3.93;;;;;;;5.89;61.61;101249.78;5045198;27;97153;-80
2022/11/05 06:41:53;;;;;;;4.23;3.57;;;;;;;5.87;61.64;101254.91;5062979;27;97490;-79
2022/11/05 06:44:18;;;;;;;6.67;3.30;;;;;;;5.87;62.00;101263.09;5039502;27;97214;-79
2022/11/05 06:46:44;;;;;;;4.00;3.17;;;;;;;5.87;61.85;101268.56;5057940;27;97025;-79
2022/11/05 06:49:09;;;;;;;6.47;3.50;;;;;;;5.89;61.71;101271.59;5038941;27;96928;-80
2022/11/05 06:51:35;;;;;;;5.27;3.33;;;;;;;5.91;61.92;101262.97;5053258;27;98016;-80
2022/11/05 06:54:00;;;;;;;3.40;3.10;;;;;;;5.95;61.84;101274.53;5043477;27;97445;-80
2022/11/05 06:56:25;;;;;;;5.67;3.83;;;;;;;5.96;61.72;101281.53;5055388;27;97597;-79
2022/11/05 06:58:51;;;;;;;3.83;3.43;;;;;;;5.95;61.87;101290.91;5041545;27;97526;-80
2022/11/05 07:01:16;;;;;;;4.83;3.80;;;;;;;5.96;61.95;101301.38;5040229;27;99544;-79
2022/11/05 07:03:43;;;;;;;6.10;4.00;;;;;;;5.98;61.61;101288.03;5039536;27;97372;-80
2022/11/05 07:06:09;;;;;;;4.93;3.50;;;;;;;5.96;61.47;101293.19;5045221;27;97026;-79
2022/11/05 07:08:36;;;;;;;5.40;2.97;;;;;;;5.93;61.84;101302.28;5048680;27;97154;-79
2022/11/05 07:11:02;;;;;;;3.53;3.13;;;;;;;5.93;61.92;101294.09;5039735;27;99124;-79
2022/11/05 07:13:28;;;;;;;3.80;3.33;;;;;;;5.95;61.59;101302.59;5045123;27;96965;-79
2022/11/05 07:15:54;;;;;;;3.77;2.90;;;;;;;5.92;61.74;101317.13;5044510;27;97003;-79
2022/11/05 07:18:19;;;;;;;3.83;3.43;;;;;;;5.89;61.94;101320.75;5039043;27;97023;-79
2022/11/05 07:20:44;;;;;;;3.93;3.00;;;;;;;5.95;61.77;101323.66;5062551;27;97484;-79
2022/11/05 07:23:13;;;;;;;5.50;3.33;;;;;;;5.98;62.02;101323.53;5038476;27;99265;-79
2022/11/05 07:25:39;;;;;;;6.87;3.47;;;;;;;5.98;61.80;101331.72;5046146;27;97039;-79
2022/11/05 07:28:04;;;;;;;3.90;2.87;;;;;;;5.96;61.82;101331.41;5060476;27;96784;-79
2022/11/05 07:30:31;;;;;;;3.33;3.03;;;;;;;5.99;61.94;101329.78;5040202;27;97258;-80
2022/11/05 07:32:57;;;;;;;4.50;2.73;;;;;;;5.99;62.01;101325.06;5049434;27;102091;-79
2022/11/05 07:35:23;;;;;;;3.13;2.83;;;;;;;6.03;62.07;101336.63;5027972;27;97683;-79
2022/11/05 07:37:49;;;;;;;2.67;2.47;;;;;;;6.07;61.94;101323.59;5042731;27;97239;-79
2022/11/05 07:40:18;;;;;;;8.27;2.53;;;;;;;6.11;61.83;101320.78;5043881;27;97498;-80
2022/11/05 07:42:48;;;;;;;3.23;2.77;;;;;;;6.17;62.06;101334.59;5067332;27;97349;-80
2022/11/05 07:45:14;;;;;;;3.47;2.97;;;;;;;6.19;62.06;101337.66;5040188;27;96617;-80
2022/11/05 07:47:57;;;;;;;3.10;2.90;;;;;;;6.19;62.01;101332.97;5068506;27;97457;-79
2022/11/05 07:50:25;;;;;;;4.13;2.97;;;;;;;6.21;62.12;101340.69;5041302;27;100469;-80
2022/11/05 07:52:51;;;;;;;5.60;3.50;;;;;;;6.27;62.29;101344.41;5062126;27;99317;-80
2022/11/05 07:55:18;;;;;;;3.03;2.80;;;;;;;6.34;61.96;101346.84;5045847;27;97616;-79
2022/11/05 07:57:46;;;;;;;4.07;3.47;;;;;;;6.40;62.22;101347.81;5062622;27;97303;-80
2022/11/05 08:00:14;;;;;;;4.37;2.47;;;;;;;6.46;62.21;101348.78;5064269;27;97215;-81
2022/11/05 08:02:41;;;;;;;4.07;2.80;;;;;;;6.53;62.40;101348.50;5068060;27;97056;-79
2022/11/05 08:05:07;;;;;;;4.97;3.47;;;;;;;6.57;62.50;101354.59;5044068;27;97468;-81
2022/11/05 08:07:33;;;;;;;3.43;3.13;;;;;;;6.66;62.17;101349.19;5058948;27;98533;-82
2022/11/05 08:09:59;;;;;;;3.23;2.97;;;;;;;6.72;62.32;101350.13;5044825;27;101073;-80
2022/11/05 08:12:24;;;;;;;6.73;2.90;;;;;;;6.80;62.41;101348.63;5048800;27;99448;-80
2022/11/05 08:14:50;;;;;;;3.23;2.80;;;;;;;6.86;62.46;101352.31;5063539;27;97002;-80
2022/11/05 08:17:17;;;;;;;3.50;3.17;;;;;;;6.92;62.60;101353.25;5044262;27;97077;-79
2022/11/05 08:19:43;;;;;;;4.57;2.80;;;;;;;6.98;62.34;101362.41;5063938;27;101039;-80
2022/11/05 08:22:08;;;;;;;2.63;2.43;;;;;;;7.06;62.50;101360.91;5066319;27;96791;-79
2022/11/05 08:24:33;;;;;;;3.80;2.67;;;;;;;7.11;62.57;101354.84;5066015;27;97473;-79
2022/11/05 08:26:59;;;;;;;3.80;3.03;;;;;;;7.17;62.86;101365.94;5047928;27;96972;-80
2022/11/05 08:29:25;;;;;;;2.70;2.50;;;;;;;7.25;62.61;101362.47;5041313;27;98385;-80
2022/11/05 08:31:50;;;;;;;7.03;3.70;;;;;;;7.34;62.82;101359.78;5072114;27;99819;-81
2022/11/05 08:34:16;;;;;;;4.27;2.57;;;;;;;7.45;62.93;101373.78;5049562;27;96854;-80
2022/11/05 08:36:45;;;;;;;5.50;3.67;;;;;;;7.53;62.93;101361.31;5043215;27;97418;-79
2022/11/05 08:39:11;;;;;;;5.20;3.23;;;;;;;7.69;63.17;101379.47;5051330;27;96920;-79
2022/11/05 08:41:37;;;;;;;4.87;4.07;;;;;;;7.81;63.20;101369.59;5038240;27;99153;-80
2022/11/05 08:44:02;;;;;;;6.10;3.73;;;;;;;7.93;63.50;101379.66;5050760;27;97196;-80
2022/11/05 08:46:28;;;;;;;6.90;4.40;;;;;;;8.07;63.38;101371.59;5042692;27;97952;-80
2022/11/05 08:48:53;;;;;;;6.47;3.87;;;;;;;8.24;63.34;101377.50;5044786;27;99279;-80
2022/11/05 08:51:19;;;;;;;5.60;3.33;;;;;;;8.37;63.52;101389.09;5048503;27;99924;-80
2022/11/05 08:53:44;;;;;;;10.53;3.90;;;;;;;8.48;63.52;101389.41;5042076;27;96792;-81
2022/11/05 08:56:10;;;;;;;4.23;3.13;;;;;;;8.66;63.88;101394.09;5056568;27;97464;-82
2022/11/05 08:58:36;;;;;;;4.60;3.80;;;;;;;8.85;64.11;101390.06;5060903;27;97878;-81
2022/11/05 09:01:03;;;;;;;8.93;3.23;;;;;;;9.04;63.89;101389.53;5061713;27;97358;-81
2022/11/05 09:03:28;;;;;;;6.50;3.70;;;;;;;9.22;63.87;101387.97;5038615;27;97179;-80
2022/11/05 09:05:54;;;;;;;3.40;3.10;;;;;;;9.36;63.79;101385.28;5055994;27;96556;-83
2022/11/05 09:08:19;;;;;;;4.60;3.60;;;;;;;9.48;63.90;101386.31;5047569;27;99540;-82
2022/11/05 09:10:46;;;;;;;3.90;3.30;;;;;;;9.59;63.90;101403.00;5047342;27;97101;-81
2022/11/05 09:13:11;;;;;;;6.20;4.07;;;;;;;9.72;63.96;101392.53;5048381;27;97630;-80
2022/11/05 09:15:37;;;;;;;6.00;3.37;;;;;;;9.82;63.88;101385.78;5059146;27;97298;-82
2022/11/05 09:18:06;;;;;;;4.93;3.03;;;;;;;9.90;63.90;101392.44;5047508;27;100025;-80
2022/11/05 09:20:32;;;;;;;5.40;4.30;;;;;;;10.03;63.91;101387.44;5064713;27;102037;-81
2022/11/05 09:22:59;;;;;;;4.00;2.90;;;;;;;10.14;63.94;101393.19;5046759;27;97023;-81
2022/11/05 09:25:25;;;;;;;4.07;3.10;;;;;;;10.24;63.94;101413.13;5043545;27;96977;-83
2022/11/05 09:27:50;;;;;;;5.00;3.40;;;;;;;10.30;63.98;101403.75;5042050;27;99584;-81
2022/11/05 09:30:15;;;;;;;6.03;3.70;;;;;;;10.37;64.08;101400.63;5044773;27;99006;-84
2022/11/05 09:32:41;;;;;;;5.97;3.17;;;;;;;10.48;64.03;101405.56;5047693;27;96925;-81
2022/11/05 09:35:07;;;;;;;4.33;3.20;;;;;;;10.61;64.09;101408.81;5045804;27;97286;-81
2022/11/05 09:37:33;;;;;;;8.77;3.37;;;;;;;10.70;63.83;101405.97;5064971;27;97158;-80
2022/11/05 09:39:59;;;;;;;4.10;3.13;;;;;;;10.80;63.86;101423.13;5048235;27;97321;-81
2022/11/05 09:42:33;;;;;;;5.80;3.33;;;;;;;10.91;63.87;101417.81;5052324;27;96897;-81
2022/11/05 09:45:08;;;;;;;5.83;3.60;;;;;;;11.00;63.85;101412.22;5039435;27;96953;-82
2022/11/05 09:47:47;;;;;;;3.70;3.30;;;;;;;11.08;63.92;101410.56;5045319;27;101048;-80
2022/11/05 09:50:17;;;;;;;3.00;2.67;;;;;;;11.16;63.71;101417.22;5039250;27;98722;-81
2022/11/05 09:52:43;;;;;;;4.47;3.30;;;;;;;11.22;63.62;101418.06;5038995;27;96983;-81
2022/11/05 09:55:34;;;;;;;3.73;3.40;;;;;;;11.28;64.18;101436.19;5067536;27;97317;-83
2022/11/05 09:58:16;;;;;;;5.30;2.97;;;;;;;11.31;63.73;101435.22;5033758;27;97422;-82
2022/11/05 10:00:42;;;;;;;3.07;2.70;;;;;;;11.31;63.46;101443.50;5063605;27;100268;-84
2022/11/05 10:03:16;;;;;;;3.53;3.10;;;;;;;11.34;63.61;101439.03;5047815;27;97092;-81
2022/11/05 10:05:44;;;;;;;6.73;3.50;;;;;;;11.38;63.62;101447.13;5044853;27;97177;-83
2022/11/05 10:08:18;;;;;;;4.90;3.37;;;;;;;11.46;63.48;101435.22;5058498;27;97605;-81
2022/11/05 10:10:48;;;;;;;3.97;2.90;;;;;;;11.49;63.34;101450.78;5058911;27;101760;-81
2022/11/05 10:13:34;;;;;;;3.23;2.93;;;;;;;11.58;63.52;101439.63;5037676;27;96988;-82
2022/11/05 10:16:24;;;;;;;3.60;2.90;;;;;;;11.64;63.53;101442.47;5042917;27;97325;-82
2022/11/05 10:19:08;;;;;;;5.20;3.17;;;;;;;11.70;63.43;101457.13;5057809;27;97438;-81
2022/11/05 10:21:35;;;;;;;4.60;3.13;;;;;;;11.77;63.20;101454.72;5033714;27;102527;-82
2022/11/05 10:24:01;;;;;;;4.30;2.87;;;;;;;11.85;63.35;101477.13;5041596;27;97052;-81
2022/11/05 10:26:27;;;;;;;4.20;3.67;;;;;;;11.92;63.01;101460.94;5027924;27;97499;-82
2022/11/05 10:28:53;;;;;;;3.20;2.90;;;;;;;11.94;63.09;101469.50;5035336;27;97041;-80
2022/11/05 10:31:21;;;;;;;3.90;3.13;;;;;;;11.99;62.90;101471.53;5046696;27;96922;-81
2022/11/05 10:33:55;;;;;;;3.90;3.50;;;;;;;12.08;62.81;101464.41;5041716;27;97051;-83
2022/11/05 10:36:24;;;;;;;4.07;3.20;;;;;;;12.10;62.90;101461.91;5044580;27;96735;-81
2022/11/05 10:38:50;;;;;;;3.70;3.37;;;;;;;12.13;62.88;101463.69;5061167;27;99903;-82
2022/11/05 10:41:33;;;;;;;4.67;3.50;;;;;;;12.19;62.72;101459.03;5044779;27;97483;-81
2022/11/05 10:44:24;;;;;;;5.37;3.67;;;;;;;12.27;62.91;101457.34;5049196;27;97051;-82
2022/11/05 10:47:27;;;;;;;5.53;3.60;;;;;;;12.38;62.86;101454.72;5047498;27;97176;-81
2022/11/05 10:49:57;;;;;;;4.20;2.67;;;;;;;12.45;62.84;101454.31;5042393;27;104274;-81
2022/11/05 10:52:33;;;;;;;5.83;3.70;;;;;;;12.55;62.55;101452.91;5043864;27;102543;-80
2022/11/05 10:55:01;;;;;;;6.10;3.07;;;;;;;12.59;62.58;101456.19;5048634;27;96679;-81
2022/11/05 10:57:31;;;;;;;6.43;3.40;;;;;;;12.67;62.50;101454.50;5067128;27;96538;-80
2022/11/05 11:00:27;;;;;;;6.83;4.07;;;;;;;12.74;62.61;101448.56;5041206;27;98606;-82
2022/11/05 11:02:54;;;;;;;3.00;2.70;;;;;;;12.89;62.36;101448.47;5024937;27;102527;-82
2022/11/05 11:05:27;;;;;;;3.43;3.13;;;;;;;13.03;62.18;101450.34;5051042;27;96931;-80
2022/11/05 11:08:10;;;;;;;4.13;3.53;;;;;;;13.18;62.08;101450.97;5065546;27;96597;-81
2022/11/05 11:10:49;;;;;;;3.93;3.53;;;;;;;13.33;61.61;101452.34;5027935;27;98391;-79
2022/11/05 11:13:23;;;;;;;3.80;3.10;;;;;;;13.52;61.70;101447.19;5033792;27;100304;-80
2022/11/05 11:15:50;;;;;;;4.63;3.10;;;;;;;13.66;61.61;101445.53;5043881;27;97074;-81
2022/11/05 11:18:35;;;;;;;7.90;2.90;;;;;;;13.84;60.68;101462.50;5051871;27;96985;-83
2022/11/05 11:21:11;;;;;;;3.80;3.03;;;;;;;14.02;60.67;101445.44;5060373;27;101309;-80
2022/11/05 11:23:38;;;;;;;3.30;2.60;;;;;;;14.32;60.70;101456.94;5042470;27;99370;-81
2022/11/05 11:26:05;;;;;;;3.13;2.83;;;;;;;14.59;60.35;101455.50;5036742;27;97479;-84
2022/11/05 11:28:42;;;;;;;3.67;2.80;;;;;;;14.77;58.70;101447.47;5038889;27;97105;-81
2022/11/05 11:31:20;;;;;;;3.40;2.77;;;;;;;14.94;59.05;101444.69;5028317;27;98774;-82
2022/11/05 11:33:49;;;;;;;6.00;3.90;;;;;;;15.13;59.21;101442.94;5050153;27;97103;-82
2022/11/05 11:36:18;;;;;;;6.73;3.83;;;;;;;15.31;58.89;101450.72;5040840;27;97030;-82
2022/11/05 11:38:44;;;;;;;3.53;3.23;;;;;;;15.49;58.74;101446.69;5042309;27;96989;-83
2022/11/05 11:41:10;;;;;;;3.57;3.17;;;;;;;15.72;58.51;101456.50;5052485;27;96929;-84
2022/11/05 11:43:39;;;;;;;4.20;3.10;;;;;;;15.81;58.04;101459.00;5048447;27;96910;-83
2022/11/05 11:46:14;;;;;;;3.33;3.00;;;;;;;15.68;57.42;101450.47;5046567;27;97204;-81
2022/11/05 11:48:42;;;;;;;4.90;3.00;;;;;;;15.47;58.00;101455.53;5044281;27;97142;-82
2022/11/05 11:51:35;;;;;;;3.93;3.10;;;;;;;15.23;57.25;101444.19;5042117;27;99946;-81
2022/11/05 11:54:02;;;;;;;7.07;3.43;;;;;;;15.01;58.51;101452.50;5032829;27;100227;-81
2022/11/05 11:56:29;;;;;;;4.70;2.83;;;;;;;14.90;58.77;101453.25;5039255;27;97217;-81
2022/11/05 11:59:09;;;;;;;2.77;2.53;;;;;;;14.77;58.52;101455.00;5046224;27;97001;-81
2022/11/05 12:02:05;;;;;;;3.43;3.03;;;;;;;14.73;58.04;101451.72;5031751;27;102451;-81
2022/11/05 12:05:03;;;;;;;3.57;2.50;;;;;;;14.69;58.34;101454.75;5041398;27;100582;-80
2022/11/05 12:07:53;;;;;;;3.93;2.97;;;;;;;14.67;57.69;101453.75;5036912;27;96871;-81
2022/11/05 12:10:39;;;;;;;4.10;3.20;;;;;;;14.61;58.38;101455.75;5035382;27;97069;-81
2022/11/05 12:13:20;;;;;;;4.57;3.40;;;;;;;14.60;58.12;101448.69;5045250;27;102863;-81
2022/11/05 12:15:54;;;;;;;3.27;2.97;;;;;;;14.61;58.66;101442.63;5044976;27;103037;-80
2022/11/05 12:18:52;;;;;;;4.20;3.60;;;;;;;14.70;58.19;101470.09;5050342;27;97335;-82
2022/11/05 12:21:25;;;;;;;4.67;3.60;;;;;;;15.01;57.50;101436.66;5033623;27;96851;-82
2022/11/05 12:24:18;;;;;;;4.23;3.03;;;;;;;15.24;57.62;101439.41;5053326;27;100144;-81
2022/11/05 12:27:20;;;;;;;4.23;3.30;;;;;;;15.83;56.89;101447.38;5073289;27;102077;-79
2022/11/05 12:30:10;;;;;;;2.93;2.73;;;;;;;16.30;57.10;101435.84;5062293;27;97355;-83